createdAt,value
2022-10-02T00:02:14.506Z,4.00
2022-10-02T00:04:46.091Z,4.10
2022-10-02T00:07:16.821Z,3.93
2022-10-02T00:09:47.871Z,4.13
2022-10-02T00:12:17.118Z,4.43
2022-10-02T00:14:46.818Z,4.30
2022-10-02T00:17:18.754Z,3.97
2022-10-02T00:19:47.198Z,3.97
2022-10-02T00:22:25.334Z,4.53
2022-10-02T00:24:58.840Z,4.37
2022-10-02T00:27:32.302Z,4.73
2022-10-02T00:30:02.630Z,4.30
2022-10-02T00:32:33.505Z,4.60
2022-10-02T00:35:25.424Z,5.03
2022-10-02T00:37:58.934Z,4.47
2022-10-02T00:40:42.263Z,4.77
2022-10-02T00:43:19.316Z,4.63
2022-10-02T00:45:56.117Z,4.70
2022-10-02T00:48:42.540Z,4.90
2022-10-02T00:51:16.502Z,4.63
2022-10-02T00:53:51.407Z,4.77
2022-10-02T00:56:25.162Z,5.00
2022-10-02T00:59:08.403Z,4.50
2022-10-02T01:01:41.546Z,4.63
2022-10-02T01:04:12.939Z,4.40
2022-10-02T01:06:41.371Z,4.70
2022-10-02T01:09:11.880Z,5.30
2022-10-02T01:11:40.289Z,5.83
2022-10-02T01:14:08.750Z,5.47
2022-10-02T01:16:37.673Z,5.00
2022-10-02T01:19:06.994Z,5.23
2022-10-02T01:21:39.921Z,5.40
2022-10-02T01:24:11.308Z,5.70
2022-10-02T01:26:41.295Z,5.87
2022-10-02T01:29:09.820Z,5.23
2022-10-02T01:31:38.433Z,5.63
2022-10-02T01:34:07.179Z,5.37
2022-10-02T01:36:36.085Z,5.23
2022-10-02T01:39:04.877Z,4.70
2022-10-02T01:41:42.863Z,4.70
2022-10-02T01:44:13.868Z,4.73
2022-10-02T01:46:47.819Z,4.70
2022-10-02T01:49:31.208Z,5.20
2022-10-02T01:52:16.434Z,4.87
2022-10-02T01:54:49.663Z,4.50
2022-10-02T01:57:25.591Z,5.33
2022-10-02T02:00:03.207Z,4.47
2022-10-02T02:02:35.369Z,4.70
2022-10-02T02:05:10.380Z,4.67
2022-10-02T02:07:47.380Z,4.93
2022-10-02T02:10:19.750Z,5.20
2022-10-02T02:12:51.510Z,4.67
2022-10-02T02:15:24.893Z,4.50
2022-10-02T02:17:56.063Z,4.57
2022-10-02T02:20:27.224Z,4.00
2022-10-02T02:22:56.866Z,4.10
2022-10-02T02:25:28.120Z,4.37
2022-10-02T02:27:59.014Z,4.20
2022-10-02T02:30:31.812Z,4.67
2022-10-02T02:33:03.259Z,4.33
2022-10-02T02:35:33.684Z,3.90
2022-10-02T02:38:04.584Z,4.67
2022-10-02T02:40:34.899Z,4.60
2022-10-02T02:43:06.784Z,4.77
2022-10-02T02:45:38.587Z,4.40
2022-10-02T02:48:10.387Z,4.53
2022-10-02T02:50:43.375Z,4.07
2022-10-02T02:53:13.779Z,3.90
2022-10-02T02:55:45.248Z,4.80
2022-10-02T02:58:16.041Z,4.23
2022-10-02T03:00:46.196Z,4.00
2022-10-02T03:03:15.534Z,4.07
2022-10-02T03:05:46.034Z,3.80
2022-10-02T03:08:19.164Z,4.23
2022-10-02T03:10:52.604Z,4.23
2022-10-02T03:13:30.351Z,3.53
2022-10-02T03:16:06.288Z,3.60
2022-10-02T03:18:45.061Z,3.93
2022-10-02T03:21:15.423Z,3.43
2022-10-02T03:23:50.152Z,3.67
2022-10-02T03:26:20.466Z,3.83
2022-10-02T03:28:55.975Z,3.53
2022-10-02T03:31:27.476Z,3.60
2022-10-02T03:33:56.648Z,3.80
2022-10-02T03:36:25.943Z,3.60
2022-10-02T03:39:19.973Z,3.13
2022-10-02T03:41:45.101Z,4.13
2022-10-02T03:44:13.681Z,3.43
2022-10-02T03:46:43.709Z,4.20
2022-10-02T03:49:12.463Z,4.60
2022-10-02T03:51:41.149Z,5.47
2022-10-02T03:54:15.173Z,7.53
2022-10-02T03:56:46.731Z,7.47
2022-10-02T03:59:18.029Z,8.40
2022-10-02T04:01:50.733Z,8.83
2022-10-02T04:04:23.584Z,10.73
2022-10-02T04:06:53.722Z,11.10
2022-10-02T04:09:27.223Z,10.90
2022-10-02T04:11:57.432Z,11.27
2022-10-02T04:14:30.196Z,10.80
2022-10-02T04:17:02.784Z,11.23
2022-10-02T04:19:35.598Z,11.47
2022-10-02T04:22:08.366Z,10.57
2022-10-02T04:24:42.855Z,10.47
2022-10-02T04:27:15.495Z,10.50
2022-10-02T04:29:47.079Z,10.30
2022-10-02T04:32:17.828Z,10.10
2022-10-02T04:34:46.370Z,10.27
2022-10-02T04:37:29.351Z,10.70
2022-10-02T04:40:07.276Z,10.33
2022-10-02T04:42:42.181Z,10.90
2022-10-02T04:45:19.073Z,11.10
2022-10-02T04:48:08.158Z,10.60
2022-10-02T04:50:42.478Z,11.43
2022-10-02T04:53:27.922Z,11.17
2022-10-02T04:56:11.202Z,12.43
2022-10-02T04:58:47.825Z,12.57
2022-10-02T05:01:20.548Z,11.93
2022-10-02T05:04:05.807Z,11.87
2022-10-02T05:06:41.037Z,12.03
2022-10-02T05:09:14.050Z,12.10
2022-10-02T05:11:48.304Z,13.20
2022-10-02T05:14:29.327Z,12.93
2022-10-02T05:17:01.124Z,12.20
2022-10-02T05:19:46.641Z,13.00
2022-10-02T05:22:29.952Z,12.87
2022-10-02T05:25:05.219Z,13.73
2022-10-02T05:27:44.290Z,12.67
2022-10-02T05:30:14.466Z,13.33
2022-10-02T05:32:49.309Z,11.77
2022-10-02T05:35:25.975Z,13.30
2022-10-02T05:37:59.582Z,13.03
2022-10-02T05:40:32.340Z,12.70
2022-10-02T05:43:04.603Z,12.87
2022-10-02T05:45:36.783Z,12.13
2022-10-02T05:48:08.292Z,12.77
2022-10-02T05:54:15.548Z,12.90
2022-10-02T05:56:48.871Z,12.80
2022-10-02T06:25:34.773Z,12.93
2022-10-02T06:31:24.139Z,13.23
2022-10-02T06:33:54.185Z,13.83
2022-10-02T06:36:34.149Z,12.93
2022-10-02T06:39:13.521Z,12.50
2022-10-02T06:41:47.622Z,11.90
2022-10-02T06:44:17.958Z,12.20
2022-10-02T06:46:52.501Z,11.77
2022-10-02T06:49:26.693Z,12.30
2022-10-02T06:52:01.045Z,11.47
2022-10-02T06:54:42.072Z,11.97
2022-10-02T06:57:16.245Z,11.40
2022-10-02T06:59:51.960Z,10.30
2022-10-02T07:02:28.683Z,11.50
2022-10-02T07:05:19.245Z,10.80
2022-10-02T07:07:52.389Z,10.60
2022-10-02T07:10:29.453Z,9.80
2022-10-02T07:13:18.220Z,8.93
2022-10-02T07:15:54.280Z,8.97
2022-10-02T07:18:26.842Z,9.60
2022-10-02T07:21:01.795Z,8.57
2022-10-02T07:23:36.342Z,8.70
2022-10-02T07:26:11.643Z,8.17
2022-10-02T07:28:43.569Z,7.23
2022-10-02T07:31:18.942Z,8.37
2022-10-02T07:33:52.805Z,8.17
2022-10-02T07:36:25.128Z,7.23
2022-10-02T07:39:02.219Z,7.57
2022-10-02T07:41:40.358Z,7.10
2022-10-02T07:44:15.421Z,7.23
2022-10-02T07:46:49.751Z,7.30
2022-10-02T07:49:29.174Z,6.90
2022-10-02T07:52:00.459Z,6.50
2022-10-02T07:54:35.891Z,6.87
2022-10-02T07:57:12.769Z,7.07
2022-10-02T07:59:43.429Z,6.93
2022-10-02T08:02:19.243Z,6.60
2022-10-02T08:04:48.321Z,6.30
2022-10-02T08:07:16.879Z,6.23
2022-10-02T08:09:57.165Z,6.50
2022-10-02T08:12:35.348Z,6.23
2022-10-02T08:15:04.360Z,5.83
2022-10-02T08:17:34.643Z,6.17
2022-10-02T08:20:07.945Z,5.77
2022-10-02T08:22:39.762Z,5.77
2022-10-02T08:25:11.802Z,5.47
2022-10-02T08:27:50.191Z,4.97
2022-10-02T08:30:18.783Z,5.40
2022-10-02T08:32:47.979Z,5.00
2022-10-02T08:35:17.262Z,4.93
2022-10-02T08:37:54.755Z,4.60
2022-10-02T08:40:46.816Z,4.30
2022-10-02T08:43:30.333Z,4.00
2022-10-02T08:46:21.507Z,4.30
2022-10-02T08:49:02.494Z,4.90
2022-10-02T08:51:54.708Z,4.23
2022-10-02T08:54:56.230Z,4.00
2022-10-02T08:57:41.933Z,4.50
2022-10-02T09:00:14.416Z,4.23
2022-10-02T09:03:02.782Z,3.80
2022-10-02T09:06:01.278Z,3.83
2022-10-02T09:08:53.287Z,3.17
2022-10-02T09:11:40.406Z,4.00
2022-10-02T09:14:18.164Z,3.40
2022-10-02T09:16:53.427Z,4.57
2022-10-02T09:19:41.542Z,3.30
2022-10-02T09:22:22.936Z,4.03
2022-10-02T09:25:02.940Z,3.83
2022-10-02T09:27:45.191Z,3.57
2022-10-02T09:30:28.889Z,3.50
2022-10-02T09:33:21.224Z,3.80
2022-10-02T09:36:16.837Z,3.80
2022-10-02T09:39:05.835Z,3.50
2022-10-02T09:41:52.924Z,4.28
2022-10-02T09:48:05.098Z,3.73
2022-10-02T09:50:47.917Z,3.73
2022-10-02T09:53:27.087Z,3.73
2022-10-02T09:56:08.254Z,3.97
2022-10-02T09:59:03.867Z,3.30
2022-10-02T10:01:37.808Z,3.33
2022-10-02T10:04:37.842Z,3.27
2022-10-02T10:07:41.405Z,3.08
2022-10-02T10:10:25.632Z,3.30
2022-10-02T10:13:21.361Z,3.47
2022-10-02T10:16:11.825Z,3.00
2022-10-02T10:18:58.312Z,3.10
2022-10-02T10:21:47.645Z,3.17
2022-10-02T10:24:25.407Z,2.75
2022-10-02T10:27:11.687Z,3.38
2022-10-02T10:30:02.009Z,3.28
2022-10-02T10:32:42.575Z,4.00
2022-10-02T10:35:22.157Z,2.90
2022-10-02T10:38:13.304Z,2.72
2022-10-02T10:40:55.305Z,2.80
2022-10-02T10:43:34.501Z,2.95
2022-10-02T10:46:12.262Z,2.67
2022-10-02T10:48:54.509Z,2.72
2022-10-02T10:51:30.638Z,2.80
2022-10-02T10:54:11.520Z,2.53
2022-10-02T10:56:44.556Z,2.78
2022-10-02T10:59:25.637Z,3.03
2022-10-02T11:02:02.582Z,2.75
2022-10-02T11:04:42.250Z,3.03
2022-10-02T11:07:30.977Z,2.83
2022-10-02T11:10:15.762Z,3.00
2022-10-02T11:12:56.628Z,2.75
2022-10-02T11:15:33.406Z,2.85
2022-10-02T11:18:06.468Z,2.53
2022-10-02T11:20:44.678Z,2.67
2022-10-02T11:23:25.264Z,3.15
2022-10-02T11:26:00.590Z,2.85
2022-10-02T11:28:35.693Z,2.58
2022-10-02T11:31:17.509Z,2.72
2022-10-02T11:34:10.748Z,3.03
2022-10-02T11:36:52.723Z,2.90
2022-10-02T11:39:36.175Z,2.38
2022-10-02T11:42:22.586Z,2.65
2022-10-02T11:45:02.838Z,2.78
2022-10-02T11:47:43.168Z,2.60
2022-10-02T11:50:39.853Z,2.55
2022-10-02T11:53:22.971Z,2.42
2022-10-02T11:55:57.975Z,2.75
2022-10-02T11:58:37.257Z,2.67
2022-10-02T12:01:18.981Z,3.03
2022-10-02T12:03:53.158Z,2.40
2022-10-02T12:06:30.279Z,2.65
2022-10-02T12:09:03.880Z,2.70
2022-10-02T12:11:35.396Z,2.60
2022-10-02T12:14:13.149Z,3.13
2022-10-02T12:16:49.035Z,2.67
2022-10-02T12:19:22.263Z,2.40
2022-10-02T12:22:12.955Z,2.95
2022-10-02T12:25:02.943Z,2.70
2022-10-02T12:27:42.828Z,2.28
2022-10-02T12:30:13.376Z,2.65
2022-10-02T12:32:51.142Z,2.38
2022-10-02T12:35:27.710Z,2.75
2022-10-02T12:37:58.668Z,2.53
2022-10-02T12:40:31.912Z,2.58
2022-10-02T12:43:20.136Z,2.70
2022-10-02T12:46:17.323Z,1.90
2022-10-02T12:48:55.178Z,2.40
2022-10-02T12:51:36.821Z,2.65
2022-10-02T12:54:26.373Z,2.40
2022-10-02T12:57:04.268Z,2.05
2022-10-02T12:59:36.288Z,2.20
2022-10-02T13:02:49.127Z,2.55
2022-10-02T13:05:32.204Z,2.55
2022-10-02T13:08:10.323Z,2.45
2022-10-02T13:10:43.678Z,2.30
2022-10-02T13:13:18.747Z,2.15
2022-10-02T13:15:55.151Z,2.30
2022-10-02T13:18:43.723Z,2.38
2022-10-02T13:21:18.446Z,2.90
2022-10-02T13:23:53.709Z,2.20
2022-10-02T13:26:27.488Z,2.17
2022-10-02T13:29:04.650Z,2.55
2022-10-02T13:31:41.477Z,2.30
2022-10-02T13:34:26.873Z,2.38
2022-10-02T13:37:03.480Z,4.65
2022-10-02T13:39:47.238Z,2.40
2022-10-02T13:42:25.977Z,2.45
2022-10-02T13:44:58.780Z,2.40
2022-10-02T13:47:38.550Z,3.00
2022-10-02T13:50:16.756Z,2.70
2022-10-02T13:52:49.994Z,2.90
2022-10-02T13:55:24.446Z,2.22
2022-10-02T13:58:01.290Z,2.20
2022-10-02T14:00:45.664Z,2.30
2022-10-02T14:03:20.216Z,2.13
2022-10-02T14:05:57.007Z,2.28
2022-10-02T14:08:39.929Z,2.20
2022-10-02T14:11:16.332Z,2.38
2022-10-02T14:13:52.047Z,1.83
2022-10-02T14:16:30.975Z,2.05
2022-10-02T14:19:09.367Z,2.40
2022-10-02T14:21:39.466Z,2.55
2022-10-02T14:24:20.607Z,2.10
2022-10-02T14:26:57.416Z,2.22
2022-10-02T14:29:45.720Z,2.28
2022-10-02T14:32:23.910Z,2.35
2022-10-02T14:35:09.670Z,2.35
2022-10-02T14:37:56.526Z,3.08
2022-10-02T14:40:28.404Z,2.17
2022-10-02T14:43:10.153Z,2.00
2022-10-02T14:45:53.929Z,2.45
2022-10-02T14:48:28.235Z,2.03
2022-10-02T14:51:06.976Z,2.20
2022-10-02T14:53:53.079Z,1.90
2022-10-02T14:56:52.141Z,2.22
2022-10-02T14:59:38.057Z,2.40
2022-10-02T15:02:17.064Z,2.00
2022-10-02T15:04:49.894Z,2.90
2022-10-02T15:07:21.122Z,2.28
2022-10-02T15:09:59.586Z,2.45
2022-10-02T15:12:31.127Z,2.15
2022-10-02T15:15:04.638Z,2.33
2022-10-02T15:17:54.726Z,2.10
2022-10-02T15:20:29.881Z,2.15
2022-10-02T15:22:59.325Z,2.42
2022-10-02T15:25:34.967Z,2.17
2022-10-02T15:28:31.212Z,2.20
2022-10-02T15:31:03.064Z,1.95
2022-10-02T15:33:33.633Z,1.98
2022-10-02T15:36:07.057Z,1.95
2022-10-02T15:38:46.479Z,2.50
2022-10-02T15:41:32.714Z,2.35
2022-10-02T15:44:07.159Z,2.40
2022-10-02T15:46:44.147Z,2.28
2022-10-02T15:49:14.221Z,2.10
2022-10-02T15:52:00.985Z,1.80
2022-10-02T15:54:36.108Z,2.05
2022-10-02T15:57:20.438Z,3.43
2022-10-02T15:59:59.068Z,2.17
2022-10-02T16:02:37.263Z,2.10
2022-10-02T16:05:14.320Z,2.30
2022-10-02T16:07:48.706Z,2.30
2022-10-02T16:10:21.400Z,3.15
2022-10-02T16:12:58.768Z,2.22
2022-10-02T16:15:29.121Z,2.58
2022-10-02T16:18:13.896Z,2.50
2022-10-02T16:20:53.110Z,2.80
2022-10-02T16:23:26.699Z,2.40
2022-10-02T16:26:03.713Z,2.47
2022-10-02T16:28:44.719Z,2.83
2022-10-02T16:31:23.215Z,3.05
2022-10-02T16:33:57.777Z,2.87
2022-10-02T16:36:31.987Z,4.23
2022-10-02T16:39:06.153Z,2.83
2022-10-02T16:41:38.539Z,2.53
2022-10-02T16:44:25.227Z,2.88
2022-10-02T16:46:55.679Z,2.33
2022-10-02T16:49:27.224Z,2.17
2022-10-02T16:51:59.658Z,2.60
2022-10-02T16:54:37.085Z,2.80
2022-10-02T16:57:09.148Z,2.40
2022-10-02T16:59:43.544Z,2.70
2022-10-02T17:02:18.862Z,2.70
2022-10-02T17:04:54.262Z,2.57
2022-10-02T17:07:26.879Z,2.83
2022-10-02T17:09:58.253Z,3.40
2022-10-02T17:12:29.510Z,3.27
2022-10-02T17:15:00.640Z,2.67
2022-10-02T17:17:44.156Z,3.07
2022-10-02T17:20:17.780Z,2.97
2022-10-02T17:22:53.799Z,2.87
2022-10-02T17:25:29.629Z,3.17
2022-10-02T17:28:00.730Z,2.90
2022-10-02T17:30:30.739Z,2.33
2022-10-02T17:33:07.916Z,2.97
2022-10-02T17:35:41.156Z,3.13
2022-10-02T17:38:32.754Z,3.20
2022-10-02T17:41:06.487Z,3.57
2022-10-02T17:43:39.891Z,2.90
2022-10-02T17:46:25.732Z,2.77
2022-10-02T17:48:57.483Z,2.70
2022-10-02T17:54:47.942Z,4.87
2022-10-02T17:57:21.071Z,3.97
2022-10-02T18:00:01.460Z,2.60
2022-10-02T18:02:43.320Z,2.40
2022-10-02T18:05:18.803Z,3.00
2022-10-02T18:07:56.927Z,3.10
2022-10-02T18:10:31.125Z,2.60
2022-10-02T18:13:06.541Z,3.40
2022-10-02T18:15:50.795Z,3.00
2022-10-02T18:18:24.257Z,4.50
2022-10-02T18:20:57.395Z,3.07
2022-10-02T18:23:36.067Z,2.70
2022-10-02T18:26:18.045Z,2.87
2022-10-02T18:28:55.619Z,2.93
2022-10-02T18:31:54.003Z,2.47
2022-10-02T18:34:33.861Z,2.60
2022-10-02T18:37:12.017Z,2.67
2022-10-02T18:39:42.373Z,3.50
2022-10-02T18:42:29.944Z,2.80
2022-10-02T18:45:05.528Z,2.50
2022-10-02T18:47:40.136Z,4.60
2022-10-02T18:50:20.533Z,2.87
2022-10-02T18:53:00.529Z,3.00
2022-10-02T18:55:39.063Z,3.30
2022-10-02T18:58:12.204Z,2.63
2022-10-02T19:00:53.701Z,2.60
2022-10-02T19:03:29.540Z,4.67
2022-10-02T19:06:00.545Z,3.50
2022-10-02T19:08:32.701Z,3.40
2022-10-02T19:11:01.154Z,3.77
2022-10-02T19:13:31.398Z,3.30
2022-10-02T19:16:01.345Z,2.80
2022-10-02T19:18:30.877Z,11.73
2022-10-02T19:21:00.926Z,3.23
2022-10-02T19:23:36.514Z,3.30
2022-10-02T19:26:06.972Z,4.03
2022-10-02T19:28:39.459Z,4.20
2022-10-02T19:31:12.310Z,3.40
2022-10-02T19:33:45.255Z,3.43
2022-10-02T19:36:18.355Z,3.20
2022-10-02T19:38:54.538Z,3.60
2022-10-02T19:41:23.752Z,3.70
2022-10-02T19:43:58.434Z,3.67
2022-10-02T19:46:32.662Z,4.30
2022-10-02T19:49:02.388Z,4.17
2022-10-02T19:51:30.966Z,3.33
2022-10-02T19:54:02.196Z,7.53
2022-10-02T19:56:32.688Z,4.03
2022-10-02T19:59:03.935Z,3.93
2022-10-02T20:01:35.144Z,4.13
2022-10-02T20:04:07.712Z,4.57
2022-10-02T20:06:39.822Z,4.80
2022-10-02T20:09:14.556Z,4.10
2022-10-02T20:11:44.926Z,3.93
2022-10-02T20:14:16.779Z,3.47
2022-10-02T20:17:02.942Z,3.53
2022-10-02T20:19:34.455Z,11.93
2022-10-02T20:22:06.241Z,3.53
2022-10-02T20:24:37.568Z,3.27
2022-10-02T20:27:08.950Z,3.40
2022-10-02T20:29:46.928Z,3.13
2022-10-02T20:32:17.822Z,3.03
2022-10-02T20:34:50.059Z,3.50
2022-10-02T20:37:20.517Z,6.73
2022-10-02T20:39:50.645Z,10.07
2022-10-02T20:42:23.157Z,3.10
2022-10-02T20:44:53.550Z,3.10
2022-10-02T20:47:36.723Z,3.40
2022-10-02T20:50:24.085Z,3.20
2022-10-02T20:53:12.159Z,3.50
2022-10-02T20:55:44.239Z,3.87
2022-10-02T20:58:25.225Z,3.47
2022-10-02T21:01:07.358Z,2.77
2022-10-02T21:03:47.619Z,2.90
2022-10-02T21:06:26.578Z,3.60
2022-10-02T21:09:18.346Z,3.43
2022-10-02T21:12:02.072Z,2.93
2022-10-02T21:14:57.304Z,2.90
2022-10-02T21:17:44.386Z,3.37
2022-10-02T21:20:51.727Z,3.23
2022-10-02T21:23:33.673Z,3.43
2022-10-02T21:26:12.826Z,4.77
2022-10-02T21:28:56.565Z,3.10
2022-10-02T21:31:42.609Z,3.83
2022-10-02T21:34:15.700Z,3.70
2022-10-02T21:36:48.590Z,4.20
2022-10-02T21:39:31.743Z,3.93
2022-10-02T21:42:17.645Z,3.57
2022-10-02T21:45:00.414Z,3.53
2022-10-02T21:47:49.603Z,3.80
2022-10-02T21:50:32.369Z,3.70
2022-10-02T21:53:14.580Z,3.10
2022-10-02T21:55:58.309Z,3.70
2022-10-02T21:58:45.200Z,3.87
2022-10-02T22:01:25.897Z,3.50
2022-10-02T22:04:10.618Z,5.03
2022-10-02T22:06:43.539Z,3.37
2022-10-02T22:09:27.008Z,3.67
2022-10-02T22:12:05.054Z,2.90
2022-10-02T22:14:36.819Z,3.50
2022-10-02T22:17:09.871Z,3.10
2022-10-02T22:19:48.158Z,3.23
2022-10-02T22:22:21.866Z,3.50
2022-10-02T22:24:58.899Z,3.50
2022-10-02T22:27:41.097Z,3.70
2022-10-02T22:30:21.036Z,3.90
2022-10-02T22:33:11.303Z,3.93
2022-10-02T22:35:57.337Z,3.57
2022-10-02T22:38:27.291Z,3.30
2022-10-02T22:40:57.973Z,3.80
2022-10-02T22:43:30.284Z,3.67
2022-10-02T22:46:02.033Z,3.50
2022-10-02T22:48:35.890Z,3.50
2022-10-02T22:51:06.531Z,3.80
2022-10-02T22:53:37.092Z,3.47
2022-10-02T22:56:15.793Z,3.87
2022-10-02T22:58:47.219Z,3.20
2022-10-02T23:01:20.993Z,2.73
2022-10-02T23:03:51.621Z,3.73
2022-10-02T23:06:25.405Z,3.47
2022-10-02T23:08:58.413Z,3.30
2022-10-02T23:11:28.646Z,3.60
2022-10-02T23:14:00.390Z,3.97
2022-10-02T23:16:35.198Z,3.10
2022-10-02T23:19:07.077Z,3.40
2022-10-02T23:21:44.578Z,3.30
2022-10-02T23:24:19.790Z,3.17
2022-10-02T23:26:50.046Z,3.57
2022-10-02T23:29:26.858Z,3.93
2022-10-02T23:32:00.387Z,3.57
2022-10-02T23:34:41.572Z,3.10
2022-10-02T23:37:15.886Z,3.43
2022-10-02T23:39:47.112Z,3.30
2022-10-02T23:42:16.759Z,3.23
2022-10-02T23:44:49.652Z,3.10
2022-10-02T23:47:27.069Z,3.20
2022-10-02T23:49:56.107Z,4.23
2022-10-02T23:52:38.011Z,3.30
2022-10-02T23:55:24.333Z,4.10
2022-10-02T23:57:58.908Z,3.40
